Time;durP1;ratioP1;P1;durP2;ratioP2;P2;SDS_P1;SDS_P2;PMS_P1;PMS_P2;Temp;Humidity;BMP_temperature;BMP_pressure;BME280_temperature;BME280_humidity;BME280_pressure;Samples;Min_cycle;Max_cycle;Signal;HPM_P1;HPM_P2
2023/09/12 00:01:44;;;;;;;25.97;13.80;;;19.90;99.90;;;;;;4995355;28;20223;-90
2023/09/12 00:04:11;;;;;;;22.17;12.47;;;19.90;99.90;;;;;;5006705;28;20207;-90
2023/09/12 00:06:37;;;;;;;22.57;13.43;;;19.80;99.90;;;;;;5013142;28;20215;-89
2023/09/12 00:09:05;;;;;;;24.80;13.33;;;19.80;99.90;;;;;;5012848;28;20207;-91
2023/09/12 00:11:31;;;;;;;20.23;11.23;;;19.80;99.90;;;;;;4997416;28;20649;-91
2023/09/12 00:13:59;;;;;;;22.17;11.37;;;19.80;99.90;;;;;;5016684;28;20230;-91
2023/09/12 00:16:24;;;;;;;22.20;12.67;;;19.70;99.90;;;;;;5000645;28;20280;-91
2023/09/12 00:18:50;;;;;;;23.13;11.80;;;19.70;99.90;;;;;;5015949;28;20256;-91
2023/09/12 00:21:16;;;;;;;21.93;12.97;;;19.70;99.90;;;;;;5032254;28;20214;-91
2023/09/12 00:23:42;;;;;;;22.07;12.83;;;19.70;99.90;;;;;;5016088;28;20194;-91
2023/09/12 00:26:07;;;;;;;22.63;12.17;;;19.70;99.90;;;;;;5016593;28;20321;-91
2023/09/12 00:28:34;;;;;;;26.67;14.60;;;19.70;99.90;;;;;;5016697;28;20273;-91
2023/09/12 00:31:00;;;;;;;22.57;13.07;;;19.70;99.90;;;;;;5016409;28;20214;-91
2023/09/12 00:33:25;;;;;;;22.70;12.87;;;19.60;99.90;;;;;;5017044;28;20584;-91
2023/09/12 00:35:51;;;;;;;22.30;12.73;;;19.60;99.90;;;;;;5016539;28;20249;-90
2023/09/12 00:38:17;;;;;;;22.70;12.77;;;19.60;99.90;;;;;;5016127;28;20181;-90
2023/09/12 00:40:43;;;;;;;18.90;12.90;;;19.60;99.90;;;;;;5015288;28;20570;-90
2023/09/12 00:43:10;;;;;;;23.10;13.53;;;19.60;99.90;;;;;;5014971;28;20210;-90
2023/09/12 00:45:35;;;;;;;24.27;13.90;;;19.60;99.90;;;;;;5015750;28;20569;-89
2023/09/12 00:48:04;;;;;;;25.97;14.47;;;19.60;99.90;;;;;;5015022;28;20321;-89
2023/09/12 00:50:32;;;;;;;24.20;12.40;;;19.50;99.90;;;;;;5032667;28;20714;-90
2023/09/12 00:52:58;;;;;;;20.57;12.23;;;19.50;99.90;;;;;;5009887;28;20207;-88
2023/09/12 00:55:24;;;;;;;25.77;12.23;;;19.50;99.90;;;;;;5012283;28;20226;-89
2023/09/12 00:57:51;;;;;;;24.97;13.13;;;19.50;99.90;;;;;;5011318;28;20251;-90
2023/09/12 01:00:17;;;;;;;23.77;11.63;;;19.40;99.90;;;;;;5012120;28;20219;-90
2023/09/12 01:02:45;;;;;;;21.33;13.07;;;19.40;99.90;;;;;;5014964;28;20186;-90
2023/09/12 01:05:14;;;;;;;21.37;12.37;;;19.50;99.90;;;;;;5015935;28;20523;-90
2023/09/12 01:07:41;;;;;;;21.37;12.80;;;19.40;99.90;;;;;;5015007;28;20210;-90
2023/09/12 01:10:07;;;;;;;23.67;13.20;;;19.40;99.90;;;;;;5030048;28;20235;-90
2023/09/12 01:12:33;;;;;;;20.67;11.73;;;19.40;99.90;;;;;;5014758;28;20214;-90
2023/09/12 01:14:59;;;;;;;22.80;12.90;;;19.30;99.90;;;;;;5014436;28;20214;-89
2023/09/12 01:17:26;;;;;;;22.07;12.80;;;19.40;99.90;;;;;;5031805;28;20253;-90
2023/09/12 01:19:53;;;;;;;21.10;12.00;;;19.30;99.90;;;;;;5031252;28;20214;-90
2023/09/12 01:22:33;;;;;;;23.20;13.13;;;19.30;99.90;;;;;;5030803;28;20252;-90
2023/09/12 01:25:12;;;;;;;21.10;13.37;;;19.30;99.90;;;;;;5030572;28;20315;-89
2023/09/12 01:27:51;;;;;;;24.60;12.53;;;19.20;99.90;;;;;;5026621;28;20219;-90
2023/09/12 01:30:22;;;;;;;18.50;11.47;;;19.20;99.90;;;;;;5011662;28;20218;-89
2023/09/12 01:32:48;;;;;;;23.47;12.50;;;19.20;99.90;;;;;;5004515;28;20695;-89
2023/09/12 01:35:14;;;;;;;16.07;10.77;;;19.10;99.90;;;;;;5004418;28;20211;-89
2023/09/12 01:37:40;;;;;;;25.63;13.67;;;19.10;99.90;;;;;;5009846;28;20215;-89
2023/09/12 01:40:07;;;;;;;22.83;12.57;;;19.10;99.90;;;;;;4994181;28;20713;-89
2023/09/12 01:42:53;;;;;;;21.20;12.30;;;19.00;99.90;;;;;;4999836;28;20199;-89
2023/09/12 01:45:19;;;;;;;25.00;13.80;;;19.00;99.90;;;;;;5014678;28;20206;-89
2023/09/12 01:47:49;;;;;;;28.77;13.53;;;18.90;99.90;;;;;;5013965;28;20194;-89
2023/09/12 01:50:17;;;;;;;25.63;12.83;;;18.90;99.90;;;;;;5031634;28;20543;-87
2023/09/12 01:52:43;;;;;;;24.27;12.53;;;18.90;99.90;;;;;;5028252;28;20256;-89
2023/09/12 01:55:11;;;;;;;26.73;13.23;;;18.80;99.90;;;;;;5010305;28;20590;-89
2023/09/12 01:57:38;;;;;;;24.20;12.87;;;18.80;99.90;;;;;;4996313;28;20305;-89
2023/09/12 02:00:04;;;;;;;27.63;15.33;;;18.80;99.90;;;;;;5030765;28;20218;-89
2023/09/12 02:02:30;;;;;;;27.23;13.17;;;18.80;99.90;;;;;;5014833;28;20209;-90
2023/09/12 02:05:20;;;;;;;24.63;13.43;;;18.80;99.90;;;;;;5013964;28;20218;-90
2023/09/12 02:07:46;;;;;;;25.80;12.43;;;18.70;99.90;;;;;;5026490;28;20218;-90
2023/09/12 02:10:12;;;;;;;28.57;12.53;;;18.70;99.90;;;;;;5014009;28;20218;-89
2023/09/12 02:12:38;;;;;;;18.47;13.23;;;18.70;99.90;;;;;;5030253;28;20230;-88
2023/09/12 02:15:05;;;;;;;28.67;14.97;;;18.60;99.90;;;;;;5014746;28;20591;-90
2023/09/12 02:17:31;;;;;;;22.70;12.50;;;18.60;99.90;;;;;;5014867;28;20277;-90
2023/09/12 02:19:56;;;;;;;23.40;12.70;;;18.60;99.90;;;;;;5030333;28;20378;-90
2023/09/12 02:22:22;;;;;;;24.73;12.43;;;18.50;99.90;;;;;;5014845;28;20226;-90
2023/09/12 02:24:49;;;;;;;26.53;14.07;;;18.50;99.90;;;;;;5017819;28;20301;-90
2023/09/12 02:27:15;;;;;;;28.17;14.77;;;18.50;99.90;;;;;;5017734;28;20245;-90
2023/09/12 02:29:42;;;;;;;21.30;12.13;;;18.40;99.90;;;;;;5017468;28;20198;-89
2023/09/12 02:32:08;;;;;;;27.70;13.37;;;18.30;99.90;;;;;;5033092;28;20238;-88
2023/09/12 02:34:34;;;;;;;19.67;11.93;;;18.30;99.90;;;;;;5013359;28;20250;-89
2023/09/12 02:37:00;;;;;;;25.87;14.60;;;18.20;99.90;;;;;;5032395;28;20570;-90
2023/09/12 02:39:25;;;;;;;19.93;13.03;;;18.20;99.90;;;;;;5017251;28;20211;-90
2023/09/12 02:41:51;;;;;;;21.90;14.13;;;18.20;99.90;;;;;;5017905;28;20210;-90
2023/09/12 02:44:17;;;;;;;20.37;12.63;;;18.10;99.90;;;;;;5017822;28;20244;-89
2023/09/12 02:46:43;;;;;;;20.37;12.17;;;18.10;99.90;;;;;;5017346;28;20711;-89
2023/09/12 02:49:08;;;;;;;27.27;12.57;;;18.10;99.90;;;;;;5017440;28;20369;-89
2023/09/12 02:51:38;;;;;;;31.07;13.73;;;18.10;99.90;;;;;;5016814;28;20206;-89
2023/09/12 02:54:04;;;;;;;25.43;13.80;;;18.10;99.90;;;;;;5030255;28;20230;-90
2023/09/12 02:56:30;;;;;;;26.43;14.10;;;18.20;99.90;;;;;;5014538;28;20406;-88
2023/09/12 02:58:56;;;;;;;30.43;14.30;;;18.20;99.90;;;;;;5032626;28;20380;-88
2023/09/12 03:01:22;;;;;;;25.70;14.80;;;18.20;99.90;;;;;;5033521;28;20765;-89
2023/09/12 03:03:49;;;;;;;26.97;15.10;;;18.20;99.90;;;;;;5033334;28;20711;-89
2023/09/12 03:06:15;;;;;;;24.40;13.37;;;18.20;99.90;;;;;;5033472;28;20207;-89
2023/09/12 03:08:41;;;;;;;29.23;14.10;;;18.20;99.90;;;;;;5032434;28;20186;-89
2023/09/12 03:11:07;;;;;;;40.17;16.93;;;18.20;99.90;;;;;;5017702;28;20187;-89
2023/09/12 03:13:34;;;;;;;29.37;14.93;;;18.10;99.90;;;;;;5033081;28;20679;-88
2023/09/12 03:16:00;;;;;;;26.57;13.40;;;18.10;99.90;;;;;;5032622;28;20234;-89
2023/09/12 03:18:26;;;;;;;29.20;13.20;;;18.00;99.90;;;;;;5015560;28;20213;-89
2023/09/12 03:20:52;;;;;;;24.93;13.90;;;18.00;99.90;;;;;;5016414;28;20214;-89
2023/09/12 03:23:19;;;;;;;25.73;13.77;;;18.00;99.90;;;;;;5017362;28;20183;-88
2023/09/12 03:25:45;;;;;;;31.00;13.67;;;17.90;99.90;;;;;;5032920;28;20242;-89
2023/09/12 03:28:11;;;;;;;35.67;14.63;;;17.80;99.90;;;;;;5016152;28;20670;-89
2023/09/12 03:30:37;;;;;;;30.30;14.43;;;17.80;99.90;;;;;;5016404;28;20230;-89
2023/09/12 03:33:04;;;;;;;24.37;13.87;;;17.80;99.90;;;;;;5015366;28;20301;-88
2023/09/12 03:35:32;;;;;;;23.23;13.43;;;17.70;99.90;;;;;;5032928;28;20697;-89
2023/09/12 03:37:57;;;;;;;27.07;13.60;;;17.70;99.90;;;;;;5033102;28;20268;-88
2023/09/12 03:40:23;;;;;;;25.50;13.80;;;17.70;99.90;;;;;;5016162;28;20218;-88
2023/09/12 03:42:49;;;;;;;21.27;12.53;;;17.70;99.90;;;;;;5031162;28;20305;-88
2023/09/12 03:45:15;;;;;;;25.50;13.27;;;17.60;99.90;;;;;;5012651;28;21241;-88
2023/09/12 03:47:40;;;;;;;25.00;11.60;;;17.50;99.90;;;;;;5013540;28;20547;-89
2023/09/12 03:50:07;;;;;;;23.97;11.87;;;17.40;99.90;;;;;;5033254;28;20273;-88
2023/09/12 03:52:32;;;;;;;23.87;12.40;;;17.30;99.90;;;;;;5029788;28;20215;-88
2023/09/12 03:55:00;;;;;;;27.00;12.80;;;17.20;99.90;;;;;;5012316;28;20222;-88
2023/09/12 03:57:26;;;;;;;32.67;15.60;;;17.20;99.90;;;;;;5014934;28;20215;-88
2023/09/12 03:59:52;;;;;;;24.80;14.90;;;17.10;99.90;;;;;;5015263;28;20229;-89
2023/09/12 04:02:18;;;;;;;24.87;12.93;;;17.20;99.90;;;;;;5016684;28;20194;-89
2023/09/12 04:04:44;;;;;;;24.83;13.07;;;17.20;99.90;;;;;;5015691;28;20353;-89
2023/09/12 04:07:10;;;;;;;21.30;12.93;;;17.30;99.90;;;;;;4999690;28;20214;-90
2023/09/12 04:09:36;;;;;;;26.70;13.50;;;17.20;99.90;;;;;;5015489;28;20218;-89
2023/09/12 04:12:02;;;;;;;24.70;12.50;;;17.20;99.90;;;;;;5015441;28;20308;-89
2023/09/12 04:14:28;;;;;;;23.83;14.50;;;17.30;99.90;;;;;;5016571;28;20321;-89
2023/09/12 04:16:53;;;;;;;24.33;13.40;;;17.20;99.90;;;;;;5015235;28;20302;-89
2023/09/12 04:19:19;;;;;;;21.87;12.30;;;17.30;99.90;;;;;;5030729;28;20210;-89
2023/09/12 04:21:45;;;;;;;26.00;14.37;;;17.20;99.90;;;;;;5032491;28;20219;-89
2023/09/12 04:24:11;;;;;;;20.70;12.33;;;17.30;99.90;;;;;;5015081;28;20218;-89
2023/09/12 04:26:36;;;;;;;23.07;13.43;;;17.30;99.90;;;;;;5015860;28;20718;-89
2023/09/12 04:29:02;;;;;;;20.83;12.53;;;17.20;99.90;;;;;;5013117;28;20182;-90
2023/09/12 04:31:28;;;;;;;22.87;13.00;;;17.20;99.90;;;;;;5011246;28;20268;-89
2023/09/12 04:33:54;;;;;;;19.70;14.97;;;17.20;99.90;;;;;;4997352;28;20703;-89
2023/09/12 04:36:20;;;;;;;29.20;14.03;;;17.30;99.90;;;;;;5007517;28;20930;-89
2023/09/12 04:38:46;;;;;;;23.93;12.73;;;17.30;99.90;;;;;;5032019;28;20310;-89
2023/09/12 04:41:16;;;;;;;27.13;13.50;;;17.30;99.90;;;;;;5015892;28;20277;-90
2023/09/12 04:43:45;;;;;;;28.13;14.67;;;17.30;99.90;;;;;;5031586;28;20697;-90
2023/09/12 04:46:11;;;;;;;26.43;13.87;;;17.40;99.90;;;;;;5014560;28;20274;-89
2023/09/12 04:48:38;;;;;;;30.23;14.03;;;17.40;99.90;;;;;;5031663;28;20587;-91
2023/09/12 04:51:04;;;;;;;32.40;15.17;;;17.30;99.90;;;;;;5014868;28;20230;-90
2023/09/12 04:53:36;;;;;;;30.70;14.67;;;17.30;99.90;;;;;;5007197;28;20261;-89
2023/09/12 04:56:02;;;;;;;28.23;12.70;;;17.30;99.90;;;;;;5028036;28;20211;-89
2023/09/12 04:58:28;;;;;;;25.87;11.93;;;17.10;99.90;;;;;;5030303;28;20206;-89
2023/09/12 05:00:55;;;;;;;27.03;14.50;;;17.00;99.90;;;;;;5014512;28;20207;-89
2023/09/12 05:03:22;;;;;;;25.70;13.87;;;17.00;99.90;;;;;;5015199;28;20203;-89
2023/09/12 05:05:49;;;;;;;32.20;16.77;;;17.10;99.90;;;;;;5031614;28;20569;-89
2023/09/12 05:08:15;;;;;;;27.57;14.57;;;17.10;99.90;;;;;;5015675;28;20190;-88
2023/09/12 05:10:43;;;;;;;26.80;15.70;;;17.10;99.90;;;;;;5013053;28;20695;-88
2023/09/12 05:13:09;;;;;;;29.93;14.90;;;17.20;99.90;;;;;;5014707;28;20221;-88
2023/09/12 05:15:36;;;;;;;34.07;16.23;;;17.20;99.90;;;;;;5005155;28;20641;-86
2023/09/12 05:18:02;;;;;;;34.90;15.63;;;17.20;99.90;;;;;;5014954;28;20218;-90
2023/09/12 05:20:28;;;;;;;32.17;17.20;;;17.30;99.90;;;;;;5014318;28;20194;-90
2023/09/12 05:22:54;;;;;;;43.60;18.90;;;17.30;99.90;;;;;;5014344;28;20267;-89
2023/09/12 05:25:20;;;;;;;37.27;17.43;;;17.40;99.90;;;;;;5013773;28;20242;-89
2023/09/12 05:27:45;;;;;;;37.30;19.77;;;17.50;99.90;;;;;;5014438;28;20222;-88
2023/09/12 05:30:11;;;;;;;39.77;18.30;;;17.60;99.90;;;;;;5014410;28;20293;-88
2023/09/12 05:32:37;;;;;;;41.37;19.47;;;17.60;99.90;;;;;;5011332;28;20234;-89
2023/09/12 05:35:04;;;;;;;41.80;20.40;;;17.60;99.90;;;;;;5011083;28;20218;-88
2023/09/12 05:37:30;;;;;;;43.30;18.93;;;17.70;99.90;;;;;;5012866;28;20297;-89
2023/09/12 05:39:55;;;;;;;49.07;21.43;;;17.70;99.90;;;;;;5013819;28;20369;-89
2023/09/12 05:42:22;;;;;;;45.83;20.23;;;17.70;99.90;;;;;;5014617;28;20202;-87
2023/09/12 05:44:49;;;;;;;46.67;22.03;;;17.80;99.90;;;;;;5013868;28;20198;-88
2023/09/12 05:47:15;;;;;;;44.30;21.33;;;17.90;99.90;;;;;;5031260;28;20187;-89
2023/09/12 05:49:41;;;;;;;43.23;21.67;;;17.90;99.90;;;;;;5014763;28;20214;-88
2023/09/12 05:52:07;;;;;;;56.77;21.67;;;18.00;99.90;;;;;;4994988;28;20210;-87
2023/09/12 05:54:33;;;;;;;46.53;20.57;;;18.30;99.90;;;;;;5024055;28;20337;-88
2023/09/12 05:56:59;;;;;;;45.67;20.80;;;18.40;99.90;;;;;;5009504;28;20214;-89
2023/09/12 05:59:24;;;;;;;48.23;21.40;;;18.70;99.90;;;;;;5013759;28;20189;-88
2023/09/12 06:01:52;;;;;;;46.97;19.40;;;18.80;99.90;;;;;;5029568;28;20256;-89
2023/09/12 06:04:18;;;;;;;50.50;22.87;;;18.70;99.90;;;;;;5013792;28;20217;-89
2023/09/12 06:06:43;;;;;;;47.03;20.23;;;18.80;99.90;;;;;;5013206;28;20677;-88
2023/09/12 06:09:09;;;;;;;55.67;21.17;;;18.80;99.90;;;;;;5003278;28;20754;-89
2023/09/12 06:11:35;;;;;;;46.03;19.50;;;19.00;99.90;;;;;;5012806;28;20186;-89
2023/09/12 06:14:00;;;;;;;51.93;21.50;;;19.10;99.90;;;;;;5015310;28;20212;-87
2023/09/12 06:16:29;;;;;;;41.90;21.00;;;19.00;99.90;;;;;;5013579;28;20213;-88
2023/09/12 06:18:55;;;;;;;48.00;21.07;;;19.20;99.90;;;;;;5012139;28;20276;-87
2023/09/12 06:21:21;;;;;;;46.17;20.87;;;19.40;99.90;;;;;;5012664;28;21749;-89
2023/09/12 06:23:48;;;;;;;40.10;20.50;;;19.70;99.90;;;;;;5012350;28;20190;-89
2023/09/12 06:26:14;;;;;;;42.73;21.53;;;19.90;99.90;;;;;;5030152;28;20248;-88
2023/09/12 06:28:40;;;;;;;49.90;20.70;;;20.10;99.90;;;;;;5006704;28;20570;-88
2023/09/12 06:31:09;;;;;;;38.33;18.63;;;20.30;99.90;;;;;;5028977;28;20222;-88
2023/09/12 06:33:35;;;;;;;32.90;17.53;;;20.50;99.90;;;;;;5012240;28;20222;-88
2023/09/12 06:36:02;;;;;;;29.97;17.03;;;20.50;99.90;;;;;;5029420;28;20218;-88
2023/09/12 06:38:28;;;;;;;43.50;17.73;;;20.80;99.90;;;;;;4996232;28;20353;-88
2023/09/12 06:40:55;;;;;;;43.17;17.13;;;21.10;99.90;;;;;;5010597;28;20290;-87
2023/09/12 06:43:20;;;;;;;33.53;18.03;;;21.60;99.90;;;;;;4995470;28;20226;-87
2023/09/12 06:45:48;;;;;;;44.17;20.03;;;23.20;99.90;;;;;;5011881;28;20241;-86
2023/09/12 06:48:13;;;;;;;37.80;17.03;;;25.30;99.90;;;;;;5026982;28;20245;-89
2023/09/12 06:50:42;;;;;;;27.25;14.93;;;27.10;99.90;;;;;;5027125;28;20838;-87
2023/09/12 06:53:09;;;;;;;30.20;15.15;;;28.50;99.90;;;;;;5011409;28;20201;-88
2023/09/12 06:55:35;;;;;;;28.25;14.05;;;29.20;99.90;;;;;;5012458;28;20241;-88
2023/09/12 06:58:01;;;;;;;28.25;13.77;;;29.60;99.90;;;;;;5011482;28;20701;-87
2023/09/12 07:00:27;;;;;;;21.08;12.70;;;30.10;99.90;;;;;;5010880;28;20203;-88
2023/09/12 07:02:53;;;;;;;24.65;13.18;;;30.60;99.90;;;;;;5011880;28;20217;-88
2023/09/12 07:05:18;;;;;;;21.60;12.20;;;30.70;99.90;;;;;;5012411;28;20275;-88
2023/09/12 07:07:44;;;;;;;25.73;12.25;;;30.90;99.90;;;;;;5010968;28;20211;-89
2023/09/12 07:10:10;;;;;;;19.88;12.05;;;30.90;99.90;;;;;;5027196;28;20210;-88
2023/09/12 07:12:36;;;;;;;23.30;12.02;;;31.50;99.90;;;;;;5010827;28;20214;-87
2023/09/12 07:15:02;;;;;;;19.42;11.43;;;32.10;99.90;;;;;;5011328;28;20226;-88
2023/09/12 07:17:28;;;;;;;19.42;13.07;;;32.60;99.90;;;;;;4996906;28;20685;-88
2023/09/12 07:19:54;;;;;;;22.75;12.18;;;32.50;99.90;;;;;;5027308;28;20269;-89
2023/09/12 07:22:20;;;;;;;19.67;11.38;;;32.30;99.90;;;;;;5011343;28;20210;-88
2023/09/12 07:24:45;;;;;;;20.30;11.57;;;31.80;99.90;;;;;;5011677;28;20297;-88
2023/09/12 07:27:11;;;;;;;21.42;11.20;;;30.10;99.90;;;;;;5010334;28;20237;-87
2023/09/12 07:29:38;;;;;;;24.58;12.00;;;29.60;99.90;;;;;;4995077;28;20187;-89
2023/09/12 07:32:04;;;;;;;19.35;11.63;;;29.20;99.90;;;;;;5028777;28;20222;-88
2023/09/12 07:34:29;;;;;;;18.17;12.45;;;28.60;99.90;;;;;;5013006;28;20467;-91
2023/09/12 07:36:55;;;;;;;18.88;10.70;;;28.10;99.90;;;;;;5013061;28;20310;-89
2023/09/12 07:39:27;;;;;;;16.90;10.88;;;28.30;99.90;;;;;;5028299;28;20264;-89
2023/09/12 07:41:53;;;;;;;18.75;11.65;;;28.90;99.90;;;;;;5012340;28;20214;-89
2023/09/12 07:44:18;;;;;;;24.77;12.68;;;29.10;99.90;;;;;;5013601;28;20190;-89
2023/09/12 07:46:44;;;;;;;21.33;11.48;;;28.70;99.90;;;;;;5013387;28;20305;-89
2023/09/12 07:49:10;;;;;;;21.73;12.30;;;27.70;99.90;;;;;;5013015;28;20281;-89
2023/09/12 07:51:36;;;;;;;20.45;11.82;;;26.70;99.90;;;;;;5013462;28;20703;-90
2023/09/12 07:54:02;;;;;;;24.50;11.75;;;26.10;99.90;;;;;;5012243;28;20230;-91
2023/09/12 07:56:28;;;;;;;17.95;10.57;;;25.70;99.90;;;;;;5030130;28;20183;-90
2023/09/12 07:58:55;;;;;;;24.90;11.43;;;25.00;99.90;;;;;;5012440;28;20297;-89
2023/09/12 08:01:21;;;;;;;19.75;9.57;;;24.90;99.90;;;;;;5011806;28;20244;-90
2023/09/12 08:03:47;;;;;;;18.30;10.80;;;24.60;99.90;;;;;;5027332;28;20245;-89
2023/09/12 08:06:13;;;;;;;24.05;11.57;;;24.70;99.90;;;;;;5012926;28;20206;-89
2023/09/12 08:08:39;;;;;;;18.58;10.43;;;24.70;99.90;;;;;;5033188;28;20189;-89
2023/09/12 08:11:05;;;;;;;20.25;10.60;;;24.40;99.90;;;;;;5033512;28;20179;-89
2023/09/12 08:13:31;;;;;;;14.48;8.65;;;24.20;99.90;;;;;;5033030;28;20207;-90
2023/09/12 08:15:57;;;;;;;13.82;7.28;;;24.00;99.90;;;;;;5032260;28;20275;-88
2023/09/12 08:18:33;;;;;;;12.70;8.85;;;23.90;99.90;;;;;;5015047;28;20219;-88
2023/09/12 08:20:59;;;;;;;14.73;9.00;;;23.60;99.90;;;;;;5032333;28;20786;-91
2023/09/12 08:23:24;;;;;;;14.57;9.02;;;24.00;99.90;;;;;;5016728;28;20186;-89
2023/09/12 08:25:50;;;;;;;13.80;8.20;;;24.50;99.90;;;;;;5016181;28;20214;-88
2023/09/12 08:28:16;;;;;;;10.45;7.28;;;25.20;99.90;;;;;;5016068;28;20771;-88
2023/09/12 08:30:45;;;;;;;9.63;5.75;;;25.80;99.90;;;;;;5015863;28;20215;-88
2023/09/12 08:33:11;;;;;;;11.98;6.25;;;25.60;99.90;;;;;;5031585;28;20231;-88
2023/09/12 08:35:39;;;;;;;9.77;6.35;;;25.10;99.90;;;;;;5015679;28;20213;-87
2023/09/12 08:38:06;;;;;;;14.98;6.50;;;24.80;99.90;;;;;;4999434;28;20183;-88
2023/09/12 08:40:35;;;;;;;14.52;6.97;;;24.80;99.90;;;;;;5031259;28;20218;-88
2023/09/12 08:43:03;;;;;;;11.93;6.22;;;25.20;99.90;;;;;;5031314;28;20691;-89
2023/09/12 08:45:29;;;;;;;12.65;7.22;;;26.10;99.90;;;;;;5033186;28;20613;-89
2023/09/12 08:47:58;;;;;;;12.10;6.82;;;27.00;99.90;;;;;;5030998;28;20281;-90
2023/09/12 08:50:30;;;;;;;15.65;7.53;;;26.70;99.90;;;;;;5032515;28;20179;-89
2023/09/12 08:52:56;;;;;;;14.05;6.28;;;26.50;99.90;;;;;;5045248;28;20214;-89
2023/09/12 08:55:22;;;;;;;14.25;7.88;;;26.10;99.90;;;;;;5027377;28;20733;-90
2023/09/12 08:57:50;;;;;;;14.38;7.80;;;26.10;99.90;;;;;;5030103;28;20251;-89
2023/09/12 09:00:17;;;;;;;12.77;7.68;;;25.50;99.90;;;;;;5013888;28;20217;-91
2023/09/12 09:02:44;;;;;;;13.90;7.53;;;25.30;99.90;;;;;;5030920;28;20186;-88
2023/09/12 09:05:11;;;;;;;12.40;8.40;;;24.80;99.90;;;;;;5031458;28;20773;-89
2023/09/12 09:07:39;;;;;;;14.77;8.23;;;24.90;99.90;;;;;;5030915;28;20222;-91
2023/09/12 09:10:07;;;;;;;14.38;8.20;;;24.80;99.90;;;;;;5012235;28;20587;-90
2023/09/12 09:12:34;;;;;;;14.20;8.45;;;25.10;99.90;;;;;;5013193;28;20711;-89
2023/09/12 09:15:21;;;;;;;10.55;8.13;;;25.40;99.90;;;;;;5032549;28;20808;-89
2023/09/12 09:17:47;;;;;;;13.88;8.18;;;25.30;99.90;;;;;;5013539;28;20640;-89
2023/09/12 09:20:37;;;;;;;9.70;7.15;;;25.30;99.90;;;;;;4999139;28;20182;-89
2023/09/12 09:23:11;;;;;;;10.18;6.57;;;25.60;99.90;;;;;;5032393;28;20229;-89
2023/09/12 09:25:40;;;;;;;11.43;7.18;;;26.00;99.90;;;;;;5014592;28;20562;-89
2023/09/12 09:28:27;;;;;;;13.00;7.50;;;26.30;99.90;;;;;;5031544;28;20234;-88
2023/09/12 09:30:54;;;;;;;11.75;7.13;;;26.00;99.90;;;;;;5030552;28;20691;-88
2023/09/12 09:33:20;;;;;;;12.52;5.95;;;25.60;99.90;;;;;;5029865;28;20222;-88
2023/09/12 09:35:48;;;;;;;7.70;5.18;;;25.40;99.90;;;;;;5014338;28;20705;-88
2023/09/12 09:38:16;;;;;;;7.35;4.50;;;25.00;99.90;;;;;;5015027;28;20926;-89
2023/09/12 09:40:43;;;;;;;7.20;3.97;;;24.80;99.90;;;;;;5030196;28;20202;-88
2023/09/12 09:43:08;;;;;;;8.82;4.45;;;24.80;99.90;;;;;;5014213;28;20253;-89
2023/09/12 09:45:46;;;;;;;5.50;4.38;;;24.70;99.90;;;;;;5014558;28;20233;-88
2023/09/12 09:48:21;;;;;;;6.95;4.30;;;24.70;99.90;;;;;;5030732;28;20229;-89
2023/09/12 09:50:48;;;;;;;6.22;4.13;;;24.90;99.90;;;;;;5030076;28;20174;-90
2023/09/12 09:53:14;;;;;;;5.93;4.03;;;24.40;99.90;;;;;;5028101;28;20187;-89
2023/09/12 09:55:41;;;;;;;4.38;3.75;;;23.90;99.90;;;;;;5009889;28;20250;-89
2023/09/12 09:58:07;;;;;;;8.98;5.28;;;23.50;99.90;;;;;;5014719;28;20211;-88
2023/09/12 10:00:37;;;;;;;10.70;4.97;;;23.60;99.90;;;;;;4998266;28;20698;-88
2023/09/12 10:03:06;;;;;;;10.68;5.10;;;23.70;99.90;;;;;;5014642;28;20206;-86
2023/09/12 10:05:32;;;;;;;13.57;5.63;;;23.80;99.90;;;;;;5015252;28;20643;-86
2023/09/12 10:08:02;;;;;;;8.30;5.32;;;24.00;99.90;;;;;;5031437;28;20175;-87
2023/09/12 10:10:29;;;;;;;8.15;4.53;;;23.90;99.90;;;;;;5030053;28;20219;-87
2023/09/12 10:12:57;;;;;;;5.32;4.30;;;24.10;99.90;;;;;;5013621;28;20210;-87
2023/09/12 10:15:28;;;;;;;6.57;4.72;;;24.20;99.90;;;;;;5046213;28;20222;-87
2023/09/12 10:17:58;;;;;;;7.40;4.47;;;24.10;99.90;;;;;;5029538;28;20222;-87
2023/09/12 10:20:35;;;;;;;6.43;4.28;;;24.20;99.90;;;;;;5030874;28;20202;-87
2023/09/12 10:23:20;;;;;;;6.22;3.65;;;24.10;99.90;;;;;;5029951;28;20685;-86
2023/09/12 10:25:47;;;;;;;7.63;3.70;;;23.90;99.90;;;;;;5029700;28;20203;-88
2023/09/12 10:28:14;;;;;;;8.48;4.35;;;24.10;99.90;;;;;;5030089;28;20218;-87
2023/09/12 10:30:44;;;;;;;5.20;4.00;;;24.00;99.90;;;;;;5027013;28;20306;-87
2023/09/12 10:33:13;;;;;;;7.43;4.72;;;24.00;99.90;;;;;;5029555;28;20674;-87
2023/09/12 10:35:40;;;;;;;5.78;4.03;;;23.80;99.90;;;;;;5029361;28;20260;-88
2023/09/12 10:38:08;;;;;;;4.30;3.90;;;23.80;99.90;;;;;;5013165;28;20540;-88
2023/09/12 10:40:36;;;;;;;6.13;4.05;;;23.60;99.90;;;;;;5029910;28;20629;-87
2023/09/12 10:43:05;;;;;;;5.65;3.85;;;23.70;99.90;;;;;;5030377;28;20210;-87
2023/09/12 10:45:36;;;;;;;6.70;3.85;;;23.70;99.90;;;;;;5017755;28;20687;-90
2023/09/12 10:48:03;;;;;;;5.07;3.78;;;23.60;99.90;;;;;;5034314;28;20214;-90
2023/09/12 10:50:29;;;;;;;7.63;3.80;;;23.70;99.90;;;;;;5018473;28;20187;-88
2023/09/12 10:52:56;;;;;;;6.60;4.03;;;24.00;99.90;;;;;;4997668;28;21150;-87
2023/09/12 10:55:22;;;;;;;4.05;3.53;;;24.40;99.90;;;;;;5013840;28;20234;-90
2023/09/12 10:58:05;;;;;;;5.75;4.30;;;24.60;99.90;;;;;;4997719;28;20207;-88
2023/09/12 11:00:34;;;;;;;6.95;4.72;;;25.20;99.90;;;;;;5033141;28;20213;-88
2023/09/12 11:03:22;;;;;;;5.80;4.50;;;26.10;99.90;;;;;;5016891;28;20214;-86
2023/09/12 11:05:55;;;;;;;5.05;4.15;;;26.50;99.90;;;;;;5027957;28;20294;-88
2023/09/12 11:08:22;;;;;;;5.15;4.57;;;26.00;99.90;;;;;;5015490;28;20637;-90
2023/09/12 11:11:18;;;;;;;5.13;3.92;;;25.40;99.90;;;;;;5016208;28;20214;-87
2023/09/12 11:13:45;;;;;;;5.10;3.70;;;25.10;99.90;;;;;;5032788;28;20217;-88
2023/09/12 11:16:13;;;;;;;5.57;3.30;;;24.60;99.90;;;;;;5033695;28;20215;-88
2023/09/12 11:19:16;;;;;;;5.38;3.33;;;24.30;99.90;;;;;;5015926;28;20206;-88
2023/09/12 11:21:53;;;;;;;3.78;2.92;;;24.00;99.90;;;;;;5029894;28;20272;-88
2023/09/12 11:24:20;;;;;;;3.63;3.22;;;23.60;99.90;;;;;;5033016;28;20694;-88
2023/09/12 11:27:07;;;;;;;3.92;2.60;;;23.70;99.90;;;;;;5033917;28;20273;-89
2023/09/12 11:29:38;;;;;;;3.65;2.70;;;23.90;99.90;;;;;;5033141;28;20631;-87
2023/09/12 11:32:07;;;;;;;4.18;2.70;;;24.50;99.90;;;;;;5016574;28;20235;-87
2023/09/12 11:34:41;;;;;;;5.95;3.58;;;24.60;99.90;;;;;;5016166;28;20287;-88
2023/09/12 11:37:07;;;;;;;5.90;2.88;;;24.70;99.90;;;;;;5030653;28;20219;-88
2023/09/12 11:39:35;;;;;;;7.18;3.58;;;24.70;99.90;;;;;;5013578;28;20214;-88
2023/09/12 11:42:03;;;;;;;3.58;2.92;;;24.20;99.90;;;;;;5012128;28;20578;-87
2023/09/12 11:44:30;;;;;;;5.47;3.28;;;24.10;99.90;;;;;;5029275;28;20224;-88
2023/09/12 11:47:05;;;;;;;3.35;3.05;;;24.30;99.90;;;;;;5028339;28;20206;-88
2023/09/12 11:49:41;;;;;;;5.10;3.20;;;24.20;99.90;;;;;;5015329;28;20256;-88
2023/09/12 11:52:12;;;;;;;3.33;3.03;;;23.90;99.90;;;;;;5029401;28;20846;-88
2023/09/12 11:54:41;;;;;;;6.60;3.70;;;23.90;99.90;;;;;;5028906;28;20214;-88
2023/09/12 11:57:11;;;;;;;6.00;3.65;;;24.00;99.90;;;;;;5025163;28;20215;-89
2023/09/12 11:59:39;;;;;;;4.57;3.25;;;24.20;99.90;;;;;;5017733;28;20187;-89
2023/09/12 12:02:09;;;;;;;5.03;3.75;;;24.20;99.90;;;;;;5024637;28;20172;-88
2023/09/12 12:04:38;;;;;;;4.38;3.75;;;24.30;99.90;;;;;;5038994;28;20206;-88
2023/09/12 12:07:04;;;;;;;7.32;3.60;;;24.20;99.90;;;;;;5024919;28;20696;-89
2023/09/12 12:09:31;;;;;;;6.53;3.95;;;23.90;99.90;;;;;;5016672;28;20206;-89
2023/09/12 12:12:03;;;;;;;7.90;2.28;;;23.80;99.90;;;;;;5029386;28;20240;-88
2023/09/12 12:14:35;;;;;;;4.53;3.45;;;23.50;99.90;;;;;;5027983;28;20205;-89
2023/09/12 12:17:11;;;;;;;5.85;2.50;;;23.20;99.90;;;;;;5028955;28;20678;-88
2023/09/12 12:19:38;;;;;;;4.32;2.22;;;22.90;99.90;;;;;;5028546;28;20301;-89
2023/09/12 12:22:09;;;;;;;6.55;2.13;;;22.90;99.90;;;;;;5045383;28;20582;-88
2023/09/12 12:24:44;;;;;;;3.50;2.38;;;22.90;99.90;;;;;;5008969;28;20214;-88
2023/09/12 12:27:11;;;;;;;6.85;2.45;;;22.90;99.90;;;;;;5027866;28;20214;-88
2023/09/12 12:29:39;;;;;;;5.38;2.33;;;22.90;99.90;;;;;;4995248;28;20186;-88
2023/09/12 12:32:06;;;;;;;4.43;2.47;;;23.00;99.90;;;;;;5028033;28;20215;-87
2023/09/12 12:34:31;;;;;;;6.78;2.40;;;23.20;99.90;;;;;;5028000;28;20404;-88
2023/09/12 12:36:57;;;;;;;4.25;2.40;;;23.00;99.90;;;;;;5025694;28;20750;-88